Terminal Aerodrome Forecast
Issued by NWS Chicago, IL

Home | Current Version | Previous Version | Text Only | Print | Product List | Glossary Off
Versions: 1 2 3 4 5 6 7 8 9 10 11 12 13 14 15 16 17 18 19 20 21 22 23 24 25 26 27 28 29 30

346
FTUS43 KLOT 170323 AAA
TAFRFD
TAF AMD
KRFD 170323Z 1703/1724 11004KT 3SM BR OVC005
     FM170500 VRB03KT 1 1/2SM -RA BR OVC003
      TEMPO 1708/1712 3/4SM BR
     FM171300 30006KT 2SM -DZ BR OVC003
     FM171900 30008KT 4SM BR OVC007=

USA.gov is the U.S. government's official web portal to all federal, state and local government web resources and services.